Time;durP1;ratioP1;P1;durP2;ratioP2;P2;SDS_P1;SDS_P2;PMS_P1;PMS_P2;Temp;Humidity;BMP_temperature;BMP_pressure;BME280_temperature;BME280_humidity;BME280_pressure;Samples;Min_cycle;Max_cycle;Signal;HPM_P1;HPM_P2
2021/04/13 00:01:35;;;;;;;0.40;0.40;;;3.60;73.60;;;;;;5033076;28;20021;-71
2021/04/13 00:04:15;;;;;;;0.40;0.40;;;3.70;73.60;;;;;;5032997;28;20052;-71
2021/04/13 00:06:47;;;;;;;0.60;0.60;;;3.70;73.60;;;;;;5032960;28;20049;-71
2021/04/13 00:09:20;;;;;;;0.35;0.35;;;3.60;73.80;;;;;;5032929;28;20477;-71
2021/04/13 00:11:47;;;;;;;0.38;0.32;;;3.60;74.20;;;;;;5033042;28;20026;-71
2021/04/13 00:14:17;;;;;;;0.47;0.35;;;3.60;74.20;;;;;;5032729;28;20037;-71
2021/04/13 00:16:45;;;;;;;0.95;0.32;;;3.60;74.20;;;;;;5032943;28;20018;-71
2021/04/13 00:19:11;;;;;;;0.30;0.30;;;3.60;74.20;;;;;;5033060;28;20029;-71
2021/04/13 00:21:39;;;;;;;0.57;0.57;;;3.60;74.20;;;;;;5033022;28;20092;-71
2021/04/13 00:24:10;;;;;;;0.20;0.20;;;3.70;74.20;;;;;;5032286;28;20488;-71
2021/04/13 00:26:35;;;;;;;0.30;0.30;;;3.70;74.00;;;;;;5033043;28;20418;-71
2021/04/13 00:29:10;;;;;;;0.30;0.30;;;3.80;74.00;;;;;;5032889;28;20018;-71
2021/04/13 00:31:40;;;;;;;0.20;0.20;;;3.80;74.00;;;;;;5032869;28;20021;-71
2021/04/13 00:34:08;;;;;;;;;;;3.90;73.90;;;;;;5033082;28;20466;-72
2021/04/13 00:36:34;;;;;;;0.30;0.30;;;3.90;73.80;;;;;;5032811;28;20008;-71
2021/04/13 00:39:12;;;;;;;0.20;0.20;;;3.90;73.90;;;;;;5032354;28;20415;-71
2021/04/13 00:41:43;;;;;;;0.40;0.40;;;3.90;74.10;;;;;;5032735;28;20021;-71
2021/04/13 00:44:11;;;;;;;0.77;0.60;;;3.90;74.20;;;;;;5032528;28;20129;-71
2021/04/13 00:46:47;;;;;;;0.20;0.20;;;3.80;74.30;;;;;;5032575;28;20609;-71
2021/04/13 00:49:14;;;;;;;0.50;0.50;;;3.80;74.60;;;;;;5032546;28;20022;-71
2021/04/13 00:51:56;;;;;;;0.50;0.50;;;3.70;74.70;;;;;;5032400;28;20029;-71
2021/04/13 00:54:38;;;;;;;0.30;0.30;;;3.70;74.90;;;;;;5032099;28;20042;-71
2021/04/13 00:57:28;;;;;;;0.38;0.38;;;3.60;75.00;;;;;;5032584;28;20025;-71
2021/04/13 00:59:56;;;;;;;0.40;0.40;;;3.60;75.00;;;;;;5034764;28;20104;-71
2021/04/13 01:02:25;;;;;;;0.40;0.40;;;3.50;75.00;;;;;;5036121;28;20021;-71
2021/04/13 01:04:53;;;;;;;0.30;0.30;;;3.60;75.20;;;;;;5036161;28;20029;-71
2021/04/13 01:07:28;;;;;;;0.50;0.50;;;3.60;75.20;;;;;;5035944;28;20025;-71
2021/04/13 01:10:01;;;;;;;0.50;0.50;;;3.60;75.20;;;;;;5035795;28;20048;-71
2021/04/13 01:12:30;;;;;;;0.20;0.20;;;3.60;75.10;;;;;;5036044;28;20021;-71
2021/04/13 01:14:59;;;;;;;0.43;0.40;;;3.60;75.10;;;;;;5035894;28;20040;-71
2021/04/13 01:17:26;;;;;;;0.40;0.40;;;3.50;75.10;;;;;;5035968;28;20485;-71
2021/04/13 01:20:39;;;;;;;0.43;0.43;;;3.60;75.10;;;;;;5035989;28;20032;-71
2021/04/13 01:23:14;;;;;;;0.32;0.32;;;3.60;75.20;;;;;;5035335;28;20112;-71
2021/04/13 01:25:45;;;;;;;0.30;0.30;;;3.50;75.20;;;;;;5035662;28;20224;-71
2021/04/13 01:28:15;;;;;;;0.40;0.32;;;3.50;75.40;;;;;;5035669;28;20026;-71
2021/04/13 01:30:48;;;;;;;0.30;0.30;;;3.40;75.40;;;;;;5035445;28;20045;-71
2021/04/13 01:33:18;;;;;;;0.22;0.22;;;3.40;75.40;;;;;;5035593;28;20378;-71
2021/04/13 01:35:50;;;;;;;0.30;0.30;;;3.40;75.50;;;;;;5035371;28;20068;-71
2021/04/13 01:38:19;;;;;;;0.88;0.88;;;3.40;75.50;;;;;;5035138;28;20167;-71
2021/04/13 01:41:03;;;;;;;0.30;0.30;;;3.40;75.40;;;;;;5035382;28;20029;-71
2021/04/13 01:43:32;;;;;;;0.17;0.17;;;3.50;75.20;;;;;;5035451;28;20017;-71
2021/04/13 01:45:58;;;;;;;0.40;0.40;;;3.50;75.20;;;;;;5035251;28;20095;-71
2021/04/13 01:48:25;;;;;;;0.43;0.43;;;3.50;75.10;;;;;;5035153;28;20264;-71
2021/04/13 01:50:57;;;;;;;0.40;0.40;;;3.50;75.20;;;;;;5034832;28;20169;-71
2021/04/13 01:53:25;;;;;;;0.30;0.30;;;3.40;75.30;;;;;;5034764;28;20411;-71
2021/04/13 01:55:58;;;;;;;0.20;0.20;;;3.30;75.40;;;;;;5034905;28;20037;-71
2021/04/13 01:58:46;;;;;;;0.70;0.60;;;3.20;75.50;;;;;;5035150;28;20022;-71
2021/04/13 02:01:26;;;;;;;0.20;0.20;;;3.10;75.60;;;;;;5035055;28;20022;-71
2021/04/13 02:03:59;;;;;;;0.30;0.22;;;3.00;75.80;;;;;;5035100;28;20031;-71
2021/04/13 02:06:31;;;;;;;0.40;0.40;;;2.90;75.90;;;;;;5034521;28;20017;-71
2021/04/13 02:09:11;;;;;;;0.40;0.40;;;2.90;76.00;;;;;;5034991;28;20104;-71
2021/04/13 02:11:37;;;;;;;;;;;2.80;76.20;;;;;;5034407;28;20025;-71
2021/04/13 02:14:18;;;;;;;0.52;0.52;;;2.60;76.00;;;;;;5034773;28;19939;-73
2021/04/13 02:17:00;;;;;;;0.40;0.40;;;2.50;76.30;;;;;;5034603;28;20025;-71
2021/04/13 02:19:26;;;;;;;0.30;0.30;;;2.50;76.40;;;;;;5034771;28;20076;-71
2021/04/13 02:21:57;;;;;;;0.50;0.50;;;2.40;76.40;;;;;;5033970;28;20417;-72
2021/04/13 02:24:35;;;;;;;0.50;0.50;;;2.40;76.40;;;;;;5033395;28;20475;-72
2021/04/13 02:27:09;;;;;;;0.40;0.40;;;2.40;76.50;;;;;;5034558;28;20044;-71
2021/04/13 02:29:40;;;;;;;0.40;0.40;;;2.40;76.50;;;;;;5034633;28;20053;-72
2021/04/13 02:32:22;;;;;;;0.20;0.20;;;2.40;76.40;;;;;;5034269;28;20059;-72
2021/04/13 02:34:58;;;;;;;0.95;0.47;;;2.50;76.40;;;;;;5034065;28;20048;-72
2021/04/13 02:37:32;;;;;;;0.40;0.40;;;2.50;76.20;;;;;;5034431;28;20520;-72
2021/04/13 02:40:07;;;;;;;0.32;0.32;;;2.60;76.20;;;;;;5034279;28;20474;-72
2021/04/13 02:42:37;;;;;;;0.75;0.40;;;2.60;76.20;;;;;;5034208;28;20025;-72
2021/04/13 02:45:10;;;;;;;0.30;0.30;;;2.70;76.10;;;;;;5034104;28;20021;-72
2021/04/13 02:47:44;;;;;;;0.25;0.25;;;2.70;76.00;;;;;;5034107;28;20040;-72
2021/04/13 02:50:15;;;;;;;0.40;0.40;;;2.80;76.00;;;;;;5033682;28;20101;-72
2021/04/13 02:52:44;;;;;;;0.40;0.40;;;2.80;76.00;;;;;;5033672;28;20563;-72
2021/04/13 02:55:22;;;;;;;1.65;0.57;;;2.80;76.00;;;;;;5033922;28;20068;-72
2021/04/13 02:57:48;;;;;;;0.40;0.40;;;2.80;76.00;;;;;;5033966;28;20420;-72
2021/04/13 03:00:23;;;;;;;0.68;0.50;;;2.90;76.00;;;;;;5033803;28;20021;-71
2021/04/13 03:02:55;;;;;;;0.40;0.40;;;2.90;76.00;;;;;;5033899;28;20055;-72
2021/04/13 03:05:26;;;;;;;0.30;0.30;;;2.90;76.00;;;;;;5033288;28;20413;-72
2021/04/13 03:07:53;;;;;;;0.30;0.30;;;2.90;76.00;;;;;;5033843;28;20021;-72
2021/04/13 03:10:29;;;;;;;0.75;0.28;;;2.90;76.10;;;;;;5033696;28;20053;-72
2021/04/13 03:12:56;;;;;;;0.30;0.30;;;2.90;76.20;;;;;;5033738;28;20130;-72
2021/04/13 03:15:28;;;;;;;0.38;0.38;;;2.90;76.30;;;;;;5033500;28;20466;-72
2021/04/13 03:17:58;;;;;;;0.30;0.30;;;2.90;76.40;;;;;;5033250;28;20033;-72
2021/04/13 03:20:25;;;;;;;;;;;2.80;76.40;;;;;;5033916;28;20117;-72
2021/04/13 03:22:54;;;;;;;0.30;0.30;;;2.70;76.20;;;;;;5033408;28;19908;-72
2021/04/13 03:25:23;;;;;;;0.40;0.40;;;2.70;76.40;;;;;;5033501;28;20033;-72
2021/04/13 03:27:49;;;;;;;0.47;0.40;;;2.70;76.40;;;;;;5033492;28;20470;-72
2021/04/13 03:30:15;;;;;;;0.40;0.40;;;2.70;76.40;;;;;;5033365;28;20017;-72
2021/04/13 03:32:55;;;;;;;0.55;0.55;;;2.70;76.40;;;;;;5033137;28;20032;-71
2021/04/13 03:35:24;;;;;;;0.30;0.30;;;2.80;76.50;;;;;;5033288;28;20047;-72
2021/04/13 03:37:51;;;;;;;0.60;0.60;;;2.80;76.50;;;;;;5033371;28;20041;-72
2021/04/13 03:40:19;;;;;;;0.50;0.50;;;2.80;76.40;;;;;;5033295;28;20032;-72
2021/04/13 03:42:45;;;;;;;0.38;0.30;;;2.90;76.40;;;;;;5033367;28;20026;-72
2021/04/13 03:45:14;;;;;;;0.43;0.43;;;2.90;76.20;;;;;;5033175;28;20048;-72
2021/04/13 03:47:44;;;;;;;0.60;0.47;;;3.00;76.10;;;;;;5032855;28;20022;-72
2021/04/13 03:50:16;;;;;;;0.40;0.40;;;3.00;76.00;;;;;;5033238;28;20067;-72
2021/04/13 03:52:42;;;;;;;0.60;0.60;;;3.10;76.10;;;;;;5033064;28;20050;-72
2021/04/13 03:55:22;;;;;;;0.40;0.40;;;3.10;76.20;;;;;;5033068;28;20119;-72
2021/04/13 03:57:48;;;;;;;0.35;0.35;;;3.10;76.30;;;;;;5033340;28;20484;-72
2021/04/13 04:00:18;;;;;;;0.30;0.30;;;3.00;76.30;;;;;;5033109;28;20053;-72
2021/04/13 04:02:43;;;;;;;;;;;3.00;76.50;;;;;;5032941;28;20021;-72
2021/04/13 04:05:13;;;;;;;0.63;0.63;;;3.00;76.50;;;;;;5033053;28;20316;-72
2021/04/13 04:08:04;;;;;;;;;;;2.90;76.80;;;;;;5033415;28;20029;-72
2021/04/13 04:10:45;;;;;;;0.60;0.60;;;2.80;76.60;;;;;;5033220;28;20270;-71
2021/04/13 04:13:20;;;;;;;0.45;0.45;;;2.90;76.90;;;;;;5032953;28;20385;-72
2021/04/13 04:15:50;;;;;;;0.40;0.40;;;2.80;76.90;;;;;;5033180;28;20045;-72
2021/04/13 04:18:29;;;;;;;0.93;0.57;;;2.80;77.00;;;;;;5032871;28;20048;-72
2021/04/13 04:20:55;;;;;;;0.50;0.50;;;2.80;77.10;;;;;;5032935;28;20022;-71
2021/04/13 04:23:30;;;;;;;0.63;0.63;;;2.80;77.10;;;;;;5032935;28;20374;-72
2021/04/13 04:26:00;;;;;;;0.50;0.50;;;2.80;77.20;;;;;;5033043;28;20046;-71
2021/04/13 04:28:33;;;;;;;0.60;0.60;;;2.80;77.20;;;;;;5031795;28;20484;-72
2021/04/13 04:31:38;;;;;;;0.50;0.50;;;2.80;77.10;;;;;;5032456;28;20028;-72
2021/04/13 04:34:15;;;;;;;0.55;0.40;;;2.70;77.10;;;;;;5031840;28;20059;-72
2021/04/13 04:36:53;;;;;;;0.45;0.40;;;2.70;77.20;;;;;;5036636;28;20022;-72
2021/04/13 04:39:31;;;;;;;0.50;0.50;;;2.60;77.20;;;;;;5036607;28;20029;-71
2021/04/13 04:42:05;;;;;;;0.30;0.30;;;2.60;77.20;;;;;;5036950;28;20072;-72
2021/04/13 04:44:31;;;;;;;0.50;0.50;;;2.50;77.40;;;;;;5036494;28;20108;-71
2021/04/13 04:47:01;;;;;;;0.45;0.45;;;2.50;77.30;;;;;;5036154;28;20505;-72
2021/04/13 04:49:40;;;;;;;0.40;0.40;;;2.40;77.30;;;;;;5036329;28;20025;-72
2021/04/13 04:52:06;;;;;;;0.47;0.47;;;2.40;77.40;;;;;;5036632;28;20033;-72
2021/04/13 04:54:32;;;;;;;0.65;0.50;;;2.30;77.40;;;;;;5035916;28;20053;-72
2021/04/13 04:56:58;;;;;;;0.40;0.40;;;2.20;77.50;;;;;;5036273;28;20026;-72
2021/04/13 04:59:23;;;;;;;0.35;0.35;;;2.10;77.70;;;;;;5035727;28;20078;-72
2021/04/13 05:01:49;;;;;;;0.50;0.50;;;2.10;77.70;;;;;;5036242;28;20056;-72
2021/04/13 05:04:15;;;;;;;0.60;0.60;;;2.00;77.70;;;;;;5036046;28;20025;-72
2021/04/13 05:06:40;;;;;;;0.40;0.40;;;1.90;77.70;;;;;;5036144;28;20492;-70
2021/04/13 05:09:06;;;;;;;0.85;0.65;;;1.90;77.70;;;;;;5034842;28;20402;-72
2021/04/13 05:11:31;;;;;;;0.77;0.63;;;1.80;77.70;;;;;;5036074;28;20025;-72
2021/04/13 05:13:57;;;;;;;0.55;0.55;;;1.80;77.80;;;;;;5035581;28;20018;-72
2021/04/13 05:16:23;;;;;;;0.60;0.60;;;1.80;77.80;;;;;;5035986;28;20516;-72
2021/04/13 05:18:49;;;;;;;0.47;0.47;;;1.80;77.80;;;;;;5035850;28;20075;-72
2021/04/13 05:21:15;;;;;;;0.43;0.40;;;1.80;77.80;;;;;;5035937;28;20029;-72
2021/04/13 05:23:41;;;;;;;0.40;0.40;;;1.80;77.80;;;;;;5035729;28;20017;-72
2021/04/13 05:26:08;;;;;;;0.57;0.57;;;1.80;77.60;;;;;;5035784;28;20041;-72
2021/04/13 05:28:35;;;;;;;0.45;0.45;;;1.80;77.50;;;;;;5035137;28;20022;-72
2021/04/13 05:31:00;;;;;;;0.60;0.60;;;1.90;77.50;;;;;;5034431;28;20021;-72
2021/04/13 05:33:26;;;;;;;0.60;0.50;;;1.90;77.40;;;;;;5035657;28;20044;-72
2021/04/13 05:35:53;;;;;;;0.65;0.47;;;2.00;77.20;;;;;;5035828;28;20041;-72
2021/04/13 05:38:21;;;;;;;0.50;0.50;;;2.10;77.20;;;;;;5035516;28;20032;-72
2021/04/13 05:40:47;;;;;;;0.40;0.40;;;2.10;77.10;;;;;;5035465;28;20108;-71
2021/04/13 05:43:15;;;;;;;0.65;0.65;;;2.20;77.20;;;;;;5034875;28;20037;-72
2021/04/13 05:45:44;;;;;;;0.50;0.50;;;2.20;77.20;;;;;;5034028;28;20026;-72
2021/04/13 05:48:10;;;;;;;0.40;0.40;;;2.30;77.20;;;;;;5035377;28;20021;-72
2021/04/13 05:50:39;;;;;;;0.55;0.40;;;2.30;77.10;;;;;;5035301;28;20061;-72
2021/04/13 05:53:05;;;;;;;0.45;0.45;;;2.40;77.00;;;;;;5035117;28;20124;-72
2021/04/13 05:55:31;;;;;;;0.50;0.50;;;2.50;76.90;;;;;;5035087;28;20128;-71
2021/04/13 05:58:07;;;;;;;0.40;0.40;;;2.60;76.80;;;;;;5034591;28;20013;-72
2021/04/13 06:00:33;;;;;;;0.47;0.47;;;2.70;76.70;;;;;;5035349;28;20394;-72
2021/04/13 06:02:59;;;;;;;0.60;0.60;;;2.80;76.60;;;;;;5035103;28;20075;-71
2021/04/13 06:05:28;;;;;;;0.40;0.40;;;2.90;76.50;;;;;;5034959;28;20029;-76
2021/04/13 06:07:54;;;;;;;0.30;0.30;;;3.10;76.40;;;;;;5034835;28;20025;-72
2021/04/13 06:10:21;;;;;;;0.30;0.30;;;3.20;76.40;;;;;;5033569;28;20040;-72
2021/04/13 06:12:52;;;;;;;0.85;0.60;;;3.30;76.30;;;;;;5034298;28;20375;-72
2021/04/13 06:15:19;;;;;;;0.57;0.38;;;3.40;76.30;;;;;;5034023;28;20474;-71
2021/04/13 06:17:46;;;;;;;0.40;0.40;;;3.50;76.20;;;;;;5014660;28;20040;-73
2021/04/13 06:20:12;;;;;;;0.35;0.35;;;3.60;76.30;;;;;;5014713;28;20030;-73
2021/04/13 06:22:38;;;;;;;0.75;0.40;;;3.60;76.40;;;;;;5014893;28;20025;-73
2021/04/13 06:25:04;;;;;;;0.50;0.50;;;3.70;76.30;;;;;;5014681;28;20028;-73
2021/04/13 06:27:29;;;;;;;0.30;0.30;;;3.70;76.30;;;;;;5014256;28;20045;-73
2021/04/13 06:29:54;;;;;;;0.30;0.30;;;3.80;76.40;;;;;;5014746;28;20022;-73
2021/04/13 06:32:21;;;;;;;0.50;0.50;;;3.90;76.30;;;;;;5014653;28;20517;-73
2021/04/13 06:34:47;;;;;;;0.65;0.40;;;4.00;76.20;;;;;;5014593;28;20359;-73
2021/04/13 06:37:12;;;;;;;0.30;0.30;;;4.10;76.20;;;;;;5014656;28;20084;-73
2021/04/13 06:39:38;;;;;;;0.40;0.40;;;4.20;76.10;;;;;;5014593;28;20029;-73
2021/04/13 06:42:06;;;;;;;0.50;0.35;;;4.30;76.20;;;;;;5014094;28;20068;-73
2021/04/13 06:44:45;;;;;;;0.30;0.30;;;4.40;76.20;;;;;;5020054;28;20021;-73
2021/04/13 06:47:35;;;;;;;0.30;0.30;;;4.40;76.20;;;;;;5019725;28;20034;-72
2021/04/13 06:50:06;;;;;;;0.98;0.40;;;4.50;76.20;;;;;;5018482;28;20021;-73
2021/04/13 06:52:50;;;;;;;0.47;0.43;;;4.60;76.20;;;;;;5033197;28;20096;-73
2021/04/13 06:55:36;;;;;;;0.50;0.50;;;4.70;76.10;;;;;;5020989;28;20155;-73
2021/04/13 06:58:26;;;;;;;0.52;0.52;;;4.80;76.00;;;;;;5022590;28;20311;-73
2021/04/13 07:01:17;;;;;;;0.80;0.80;;;4.80;75.90;;;;;;5049689;22;20017;-68
2021/04/13 07:04:15;;;;;;;0.60;0.60;;;4.90;75.90;;;;;;5054020;28;20094;-68
2021/04/13 07:06:47;;;;;;;0.80;0.80;;;4.90;76.00;;;;;;5052587;28;20033;-67
2021/04/13 07:09:26;;;;;;;0.60;0.60;;;5.00;76.10;;;;;;5053834;28;20106;-67
2021/04/13 07:12:00;;;;;;;;;;;5.00;76.20;;;;;;5053714;28;20079;-66
2021/04/13 07:14:43;;;;;;;0.60;0.60;;;5.00;76.10;;;;;;5053748;28;19909;-68
2021/04/13 07:17:47;;;;;;;0.63;0.63;;;5.10;76.20;;;;;;5053855;28;20025;-67
2021/04/13 07:20:28;;;;;;;1.08;0.80;;;5.20;76.20;;;;;;5045201;28;20041;-67
2021/04/13 07:23:13;;;;;;;0.77;0.73;;;5.30;76.10;;;;;;5053697;28;20021;-68
2021/04/13 07:25:44;;;;;;;2.38;0.88;;;5.40;76.10;;;;;;5053164;28;20028;-67
2021/04/13 07:28:30;;;;;;;1.30;0.80;;;5.50;75.90;;;;;;5053482;28;20028;-67
2021/04/13 07:31:03;;;;;;;2.63;0.75;;;5.50;75.90;;;;;;5053370;28;20033;-66
2021/04/13 07:33:32;;;;;;;0.70;0.70;;;5.60;75.90;;;;;;5053478;28;20021;-66
2021/04/13 07:36:03;;;;;;;1.05;1.00;;;5.70;75.80;;;;;;5053292;28;20061;-68
2021/04/13 07:38:40;;;;;;;0.73;0.55;;;5.80;75.90;;;;;;5052487;28;20028;-67
2021/04/13 07:41:11;;;;;;;0.75;0.75;;;5.90;75.80;;;;;;5053016;28;20024;-68
2021/04/13 07:44:07;;;;;;;0.80;0.80;;;5.90;75.70;;;;;;5053375;28;20021;-67
2021/04/13 07:47:09;;;;;;;1.15;0.65;;;6.00;75.60;;;;;;5053319;28;20056;-67
2021/04/13 07:49:46;;;;;;;1.15;1.05;;;6.10;75.70;;;;;;5051871;28;20040;-68
2021/04/13 07:52:38;;;;;;;0.77;0.77;;;6.20;76.20;;;;;;5068825;28;20021;-67
2021/04/13 07:55:34;;;;;;;1.08;0.77;;;6.30;75.30;;;;;;5052774;28;20114;-68
2021/04/13 07:58:03;;;;;;;1.88;0.90;;;6.40;75.40;;;;;;5053035;28;20028;-68
2021/04/13 08:00:30;;;;;;;1.35;1.00;;;6.40;75.30;;;;;;5051055;28;20458;-67
2021/04/13 08:03:15;;;;;;;1.17;0.70;;;6.70;75.20;;;;;;5033378;28;20084;-68
2021/04/13 08:05:44;;;;;;;0.70;0.70;;;6.80;74.60;;;;;;5052579;28;20474;-69
2021/04/13 08:08:15;;;;;;;0.70;0.70;;;6.80;74.60;;;;;;5052381;28;20029;-68
2021/04/13 08:10:41;;;;;;;0.55;0.55;;;6.90;74.70;;;;;;5056563;28;20263;-67
2021/04/13 08:13:12;;;;;;;1.10;0.80;;;6.90;74.50;;;;;;5057063;28;20063;-68
2021/04/13 08:15:46;;;;;;;0.40;0.40;;;7.00;74.60;;;;;;5055810;28;20078;-68
2021/04/13 08:18:45;;;;;;;0.55;0.55;;;7.00;74.60;;;;;;5057094;28;20017;-66
2021/04/13 08:21:33;;;;;;;1.45;1.08;;;7.10;74.30;;;;;;5052737;28;20045;-67
2021/04/13 08:23:59;;;;;;;1.77;0.80;;;7.10;74.20;;;;;;5056531;28;20017;-67
2021/04/13 08:26:30;;;;;;;4.32;1.25;;;7.10;74.00;;;;;;5056820;28;20104;-67
2021/04/13 08:29:08;;;;;;;2.20;1.25;;;7.10;73.20;;;;;;5055501;28;20025;-66
2021/04/13 08:35:09;;;;;;;2.92;1.10;;;7.00;73.30;;;;;;5056850;28;20143;-67
2021/04/13 08:38:08;;;;;;;1.80;0.98;;;7.00;72.50;;;;;;5056266;28;20452;-67
2021/04/13 08:40:42;;;;;;;1.05;0.77;;;7.10;72.60;;;;;;5056746;28;20029;-68
2021/04/13 08:43:08;;;;;;;1.02;0.95;;;7.10;72.40;;;;;;5056578;28;20025;-67
2021/04/13 08:45:37;;;;;;;1.48;0.65;;;7.30;72.40;;;;;;5056554;28;20021;-67
2021/04/13 08:48:19;;;;;;;2.15;1.00;;;7.50;72.30;;;;;;5056364;28;20555;-67
2021/04/13 08:50:51;;;;;;;2.83;1.13;;;7.60;71.60;;;;;;5056518;28;20120;-66
2021/04/13 08:53:30;;;;;;;2.00;1.17;;;7.60;71.10;;;;;;5056015;28;20070;-67
2021/04/13 08:56:17;;;;;;;2.53;1.10;;;7.60;71.10;;;;;;5056373;28;20032;-67
2021/04/13 08:58:47;;;;;;;0.73;0.70;;;7.60;70.90;;;;;;5056322;28;20483;-67
2021/04/13 09:01:36;;;;;;;0.73;0.73;;;7.70;70.90;;;;;;5056059;28;20064;-66
2021/04/13 09:04:08;;;;;;;2.93;0.80;;;7.80;70.70;;;;;;5056154;28;20112;-67
2021/04/13 09:06:56;;;;;;;2.75;1.00;;;7.90;70.60;;;;;;5054488;28;20025;-66
2021/04/13 09:10:03;;;;;;;0.80;0.68;;;7.90;69.40;;;;;;5056111;28;20060;-67
2021/04/13 09:12:38;;;;;;;1.40;0.90;;;7.90;69.60;;;;;;4994603;28;20042;-67
2021/04/13 09:15:20;;;;;;;0.95;0.68;;;8.00;69.50;;;;;;4994633;28;20128;-67
2021/04/13 09:17:53;;;;;;;0.40;0.40;;;8.10;69.30;;;;;;4994606;28;20022;-67
2021/04/13 09:20:34;;;;;;;0.85;0.60;;;8.20;69.20;;;;;;4993864;28;20138;-68
2021/04/13 09:23:41;;;;;;;2.45;1.10;;;8.20;69.20;;;;;;4994586;28;20101;-68
2021/04/13 09:26:20;;;;;;;1.30;0.77;;;8.20;69.10;;;;;;4950094;28;20133;-68
2021/04/13 09:29:09;;;;;;;0.65;0.65;;;8.20;69.30;;;;;;4994572;28;20026;-68
2021/04/13 09:31:46;;;;;;;3.63;1.27;;;8.30;69.10;;;;;;4994274;28;20054;-67
2021/04/13 09:34:13;;;;;;;1.23;1.13;;;8.30;68.80;;;;;;4994005;28;20495;-68
2021/04/13 09:37:15;;;;;;;0.60;0.60;;;8.20;68.90;;;;;;4993871;28;20027;-67
2021/04/13 09:40:15;;;;;;;1.20;0.70;;;8.30;68.70;;;;;;4994156;28;20034;-66
2021/04/13 09:43:12;;;;;;;1.15;0.80;;;8.60;68.70;;;;;;4994135;28;20022;-68
2021/04/13 09:45:53;;;;;;;1.70;1.05;;;8.90;67.90;;;;;;5003408;28;20040;-67
2021/04/13 09:48:28;;;;;;;1.05;0.80;;;8.80;67.40;;;;;;5055261;28;20029;-67
2021/04/13 09:51:19;;;;;;;1.20;0.82;;;8.70;67.30;;;;;;5054760;28;20021;-67
2021/04/13 09:53:56;;;;;;;1.10;0.88;;;8.40;67.90;;;;;;4993613;28;20108;-66
2021/04/13 09:56:25;;;;;;;1.00;0.90;;;8.50;67.90;;;;;;4993568;28;20053;-66
2021/04/13 09:59:17;;;;;;;0.93;0.70;;;8.60;67.50;;;;;;4992199;28;20387;-66
2021/04/13 10:02:08;;;;;;;1.02;0.55;;;8.90;67.10;;;;;;4971353;28;20514;-66
2021/04/13 10:04:53;;;;;;;1.05;0.57;;;9.10;66.70;;;;;;4993225;28;20470;-71
2021/04/13 10:07:22;;;;;;;1.30;0.50;;;9.20;66.40;;;;;;4993403;28;20026;-68
2021/04/13 10:09:48;;;;;;;0.77;0.77;;;9.10;66.70;;;;;;4993496;28;20113;-69
2021/04/13 10:12:28;;;;;;;1.17;0.90;;;8.90;66.90;;;;;;4993493;28;20049;-69
2021/04/13 10:15:07;;;;;;;0.98;0.70;;;8.80;67.30;;;;;;4993465;28;20049;-69
2021/04/13 10:17:42;;;;;;;0.65;0.43;;;8.70;67.90;;;;;;4993438;28;20046;-68
2021/04/13 10:20:50;;;;;;;1.13;0.43;;;8.80;67.60;;;;;;4993052;28;20494;-71
2021/04/13 10:23:43;;;;;;;0.97;0.53;;;8.90;67.10;;;;;;4993508;28;20041;-70
2021/04/13 10:26:22;;;;;;;1.15;0.80;;;9.10;66.80;;;;;;4993312;28;20033;-67
2021/04/13 10:29:08;;;;;;;0.80;0.52;;;9.40;66.50;;;;;;4993306;28;20113;-67
2021/04/13 10:31:36;;;;;;;0.50;0.50;;;9.70;65.80;;;;;;5043483;28;20088;-67
2021/04/13 10:34:32;;;;;;;0.95;0.55;;;9.90;65.40;;;;;;5052858;28;20025;-68
2021/04/13 10:37:29;;;;;;;0.80;0.80;;;9.80;65.30;;;;;;5054398;28;20048;-67
2021/04/13 10:40:33;;;;;;;1.63;0.68;;;9.80;65.40;;;;;;5051203;28;20079;-66
2021/04/13 10:43:27;;;;;;;0.63;0.60;;;9.80;64.70;;;;;;5054220;28;20385;-68
2021/04/13 10:46:07;;;;;;;0.95;0.57;;;9.60;65.00;;;;;;5054288;28;20488;-68
2021/04/13 10:48:47;;;;;;;0.45;0.45;;;9.60;65.10;;;;;;5052390;28;20091;-68
2021/04/13 10:51:18;;;;;;;0.60;0.60;;;9.90;64.70;;;;;;5054156;28;20017;-67
2021/04/13 10:53:52;;;;;;;0.47;0.47;;;10.20;64.10;;;;;;5054025;28;20040;-68
2021/04/13 10:56:49;;;;;;;0.50;0.50;;;10.20;63.70;;;;;;5054080;28;20032;-67
2021/04/13 10:59:17;;;;;;;1.05;0.60;;;10.20;63.80;;;;;;5053937;28;20070;-69
2021/04/13 11:02:03;;;;;;;0.43;0.43;;;10.20;64.10;;;;;;5053617;28;20045;-69
2021/04/13 11:05:05;;;;;;;0.82;0.60;;;10.20;64.10;;;;;;5051878;28;20025;-69
2021/04/13 11:08:21;;;;;;;1.98;0.60;;;10.30;63.90;;;;;;5043993;28;20051;-68
2021/04/13 11:11:09;;;;;;;1.70;0.75;;;10.50;63.60;;;;;;5053265;28;20025;-67
2021/04/13 11:13:59;;;;;;;1.00;0.90;;;10.40;62.20;;;;;;5052942;28;20102;-67
2021/04/13 11:17:02;;;;;;;1.25;0.88;;;10.10;62.80;;;;;;5053036;28;20094;-68
2021/04/13 11:20:03;;;;;;;0.75;0.70;;;10.20;63.10;;;;;;5053612;28;20108;-68
2021/04/13 11:22:50;;;;;;;0.93;0.47;;;10.50;62.90;;;;;;5053412;28;20025;-68
2021/04/13 11:25:42;;;;;;;0.55;0.55;;;10.80;62.50;;;;;;5053475;28;20044;-68
2021/04/13 11:28:22;;;;;;;0.63;0.63;;;11.00;61.90;;;;;;5053212;28;20051;-68
2021/04/13 11:31:20;;;;;;;0.70;0.70;;;10.80;61.60;;;;;;5053339;28;20108;-67
2021/04/13 11:34:07;;;;;;;0.70;0.70;;;10.40;62.30;;;;;;5053477;28;20021;-67
2021/04/13 11:37:03;;;;;;;0.60;0.60;;;10.20;62.20;;;;;;5053327;28;20043;-68
2021/04/13 11:39:41;;;;;;;1.58;0.80;;;10.20;62.10;;;;;;5052192;28;20040;-68
2021/04/13 11:42:32;;;;;;;0.60;0.60;;;10.30;61.00;;;;;;5048666;28;20505;-68
2021/04/13 11:45:07;;;;;;;0.75;0.75;;;10.40;60.50;;;;;;5052259;28;20025;-67
2021/04/13 11:48:02;;;;;;;0.65;0.65;;;10.50;60.50;;;;;;5051128;28;20070;-67
2021/04/13 11:50:40;;;;;;;0.60;0.50;;;10.40;60.70;;;;;;5042291;28;20044;-68
2021/04/13 11:53:25;;;;;;;0.40;0.40;;;10.50;61.00;;;;;;5052782;28;20515;-68
2021/04/13 11:55:51;;;;;;;1.55;0.80;;;10.70;60.80;;;;;;5052878;28;20094;-68
2021/04/13 11:58:24;;;;;;;0.93;0.65;;;10.80;60.10;;;;;;5049476;28;20053;-66
2021/04/13 12:01:17;;;;;;;0.82;0.82;;;10.50;60.20;;;;;;5046196;23;20592;-73
2021/04/13 12:04:03;;;;;;;0.68;0.40;;;10.70;60.50;;;;;;5027969;28;20022;-72
2021/04/13 12:07:04;;;;;;;0.80;0.80;;;11.40;60.00;;;;;;5032109;28;20101;-72
2021/04/13 12:10:00;;;;;;;0.88;0.60;;;12.20;56.90;;;;;;5023266;28;20021;-72
2021/04/13 12:12:34;;;;;;;1.55;1.17;;;12.50;56.80;;;;;;5032048;28;20029;-72
2021/04/13 12:15:03;;;;;;;1.55;0.50;;;12.50;56.70;;;;;;5029550;28;20029;-72
2021/04/13 12:17:43;;;;;;;1.08;0.90;;;12.30;57.20;;;;;;5023050;28;20021;-72
2021/04/13 12:20:31;;;;;;;0.70;0.70;;;11.80;56.90;;;;;;5029025;28;20043;-72
2021/04/13 12:23:05;;;;;;;2.53;0.80;;;11.10;57.90;;;;;;5022690;28;20029;-72
2021/04/13 12:25:51;;;;;;;1.10;0.60;;;10.60;57.70;;;;;;5031475;28;20046;-73
2021/04/13 12:28:34;;;;;;;0.60;0.60;;;10.30;58.00;;;;;;5032536;28;20029;-72
2021/04/13 12:31:05;;;;;;;0.70;0.70;;;10.10;58.50;;;;;;5032317;28;20028;-72
2021/04/13 12:33:52;;;;;;;0.82;0.75;;;10.00;58.50;;;;;;5032369;28;20033;-71
2021/04/13 12:36:41;;;;;;;0.60;0.60;;;9.90;58.60;;;;;;5032902;28;20390;-72
2021/04/13 12:39:08;;;;;;;0.63;0.55;;;9.90;58.30;;;;;;5032819;28;20087;-73
2021/04/13 12:41:54;;;;;;;0.50;0.50;;;10.20;58.40;;;;;;5032814;28;20034;-72
2021/04/13 12:44:23;;;;;;;0.65;0.60;;;11.10;57.20;;;;;;5033099;28;20049;-71
2021/04/13 12:46:51;;;;;;;2.03;0.80;;;11.60;55.60;;;;;;5032714;28;20509;-68
2021/04/13 12:49:16;;;;;;;1.58;1.13;;;11.40;53.90;;;;;;5032446;28;20482;-71
2021/04/13 12:51:56;;;;;;;1.77;0.80;;;11.00;54.80;;;;;;5028668;28;20048;-70
2021/04/13 12:54:33;;;;;;;2.80;1.65;;;10.60;55.10;;;;;;5024109;28;20034;-70
2021/04/13 12:57:19;;;;;;;2.80;0.95;;;10.30;55.40;;;;;;5035065;28;20030;-71
2021/04/13 12:59:46;;;;;;;1.45;0.65;;;9.90;55.00;;;;;;5035114;28;20398;-70
2021/04/13 13:02:31;;;;;;;0.73;0.70;;;9.60;55.60;;;;;;5034279;28;20120;-70
2021/04/13 13:04:56;;;;;;;2.22;0.82;;;9.60;55.90;;;;;;5034870;28;20022;-71
2021/04/13 13:07:25;;;;;;;1.08;0.85;;;9.90;55.60;;;;;;5035990;28;20064;-71
2021/04/13 13:09:51;;;;;;;0.90;0.70;;;10.60;54.70;;;;;;5035872;28;20072;-72
2021/04/13 13:12:36;;;;;;;1.10;0.90;;;11.30;53.90;;;;;;5035646;28;20049;-70
2021/04/13 13:15:11;;;;;;;1.45;0.93;;;11.40;52.40;;;;;;5034542;28;20375;-71
2021/04/13 13:17:40;;;;;;;0.85;0.80;;;11.30;52.70;;;;;;5035962;28;20021;-71
2021/04/13 13:20:11;;;;;;;0.65;0.65;;;11.20;53.20;;;;;;5035800;28;20087;-71
2021/04/13 13:22:47;;;;;;;1.27;0.80;;;11.20;53.50;;;;;;5035707;28;20029;-71
2021/04/13 13:25:26;;;;;;;1.15;0.57;;;11.00;53.50;;;;;;5035019;28;20029;-71
2021/04/13 13:28:06;;;;;;;0.50;0.50;;;10.60;54.30;;;;;;5035335;28;20041;-71
2021/04/13 13:30:32;;;;;;;0.73;0.73;;;10.30;55.10;;;;;;5035584;28;20030;-71
2021/04/13 13:32:58;;;;;;;0.40;0.40;;;10.00;55.30;;;;;;5035624;28;20037;-71
2021/04/13 13:35:23;;;;;;;0.50;0.47;;;9.90;55.30;;;;;;5035535;28;20133;-70
2021/04/13 13:37:54;;;;;;;0.80;0.75;;;9.80;55.50;;;;;;5034098;28;20454;-71
2021/04/13 13:40:33;;;;;;;0.68;0.50;;;9.70;55.10;;;;;;5035356;28;20025;-70
2021/04/13 13:43:00;;;;;;;2.63;0.82;;;9.70;55.00;;;;;;5035124;28;20382;-71
2021/04/13 13:45:38;;;;;;;0.75;0.75;;;10.20;54.20;;;;;;5035557;28;20022;-71
2021/04/13 13:48:22;;;;;;;1.85;0.60;;;11.00;53.40;;;;;;5030597;28;20427;-71